createdAt,value
2023-12-23T00:01:10.005Z,1.05
2023-12-23T00:03:37.645Z,0.98
2023-12-23T00:06:05.248Z,0.90
2023-12-23T00:08:32.690Z,0.63
2023-12-23T00:11:00.051Z,0.70
2023-12-23T00:13:27.619Z,0.60
2023-12-23T00:15:57.354Z,0.80
2023-12-23T00:18:24.852Z,1.00
2023-12-23T00:20:52.579Z,1.02
2023-12-23T00:23:20.023Z,0.77
2023-12-23T00:25:47.559Z,1.00
2023-12-23T00:28:15.251Z,0.82
2023-12-23T00:30:42.618Z,1.15
2023-12-23T00:33:10.106Z,1.17
2023-12-23T00:35:37.657Z,1.02
2023-12-23T00:38:04.999Z,1.42
2023-12-23T00:40:32.336Z,1.27
2023-12-23T00:42:59.684Z,1.05
2023-12-23T00:45:26.976Z,0.95
2023-12-23T00:47:54.435Z,1.33
2023-12-23T00:50:22.129Z,1.52
2023-12-23T00:52:49.519Z,0.90
2023-12-23T00:55:17.150Z,1.15
2023-12-23T00:57:44.854Z,1.13
2023-12-23T01:00:13.101Z,1.10
2023-12-23T01:02:40.752Z,1.10
2023-12-23T01:05:08.674Z,1.35
2023-12-23T01:07:36.248Z,0.90
2023-12-23T01:10:03.890Z,1.45
2023-12-23T01:12:31.229Z,0.82
2023-12-23T01:14:58.638Z,1.27
2023-12-23T01:17:25.923Z,0.85
2023-12-23T01:19:53.356Z,1.00
2023-12-23T01:22:21.565Z,1.17
2023-12-23T01:24:48.910Z,1.08
2023-12-23T01:27:19.101Z,1.40
2023-12-23T01:29:46.424Z,1.40
2023-12-23T01:32:13.812Z,1.55
2023-12-23T01:34:43.509Z,1.10
2023-12-23T01:37:10.852Z,1.20
2023-12-23T01:39:38.137Z,1.30
2023-12-23T01:42:05.519Z,1.20
2023-12-23T01:44:32.816Z,1.27
2023-12-23T01:47:01.301Z,1.25
2023-12-23T01:49:29.309Z,1.67
2023-12-23T01:51:57.410Z,1.30
2023-12-23T01:54:24.868Z,1.60
2023-12-23T01:56:52.593Z,1.42
2023-12-23T01:59:19.995Z,1.08
2023-12-23T02:01:47.539Z,1.48
2023-12-23T02:04:14.958Z,1.60
2023-12-23T02:06:42.302Z,1.10
2023-12-23T02:09:09.743Z,2.38
2023-12-23T02:11:40.061Z,1.15
2023-12-23T02:14:10.609Z,1.35
2023-12-23T02:16:38.328Z,1.00
2023-12-23T02:19:05.747Z,1.00
2023-12-23T02:21:33.140Z,1.10
2023-12-23T02:24:00.402Z,1.10
2023-12-23T02:26:28.191Z,1.15
2023-12-23T02:28:55.672Z,0.90
2023-12-23T02:31:23.174Z,1.55
2023-12-23T02:33:50.880Z,1.08
2023-12-23T02:36:24.461Z,1.10
2023-12-23T02:38:52.028Z,1.00
2023-12-23T02:41:19.526Z,1.00
2023-12-23T02:43:46.960Z,1.13
2023-12-23T02:46:14.244Z,1.00
2023-12-23T02:48:41.560Z,0.90
2023-12-23T02:51:08.892Z,1.13
2023-12-23T02:53:36.329Z,0.95
2023-12-23T02:56:03.667Z,1.10
2023-12-23T02:58:30.947Z,1.40
2023-12-23T03:00:58.598Z,1.40
2023-12-23T03:03:25.954Z,1.10
2023-12-23T03:05:54.829Z,1.25
2023-12-23T03:08:22.178Z,1.20
2023-12-23T03:10:49.549Z,1.05
2023-12-23T03:13:17.292Z,1.10
2023-12-23T03:15:44.854Z,1.17
2023-12-23T03:18:12.232Z,1.30
2023-12-23T03:20:40.035Z,1.13
2023-12-23T03:23:07.460Z,1.35
2023-12-23T03:25:35.610Z,1.10
2023-12-23T03:28:03.065Z,1.13
2023-12-23T03:30:30.983Z,0.80
2023-12-23T03:32:58.379Z,0.98
2023-12-23T03:35:25.895Z,1.00
2023-12-23T03:37:53.483Z,0.77
2023-12-23T03:40:21.878Z,0.93
2023-12-23T03:42:49.367Z,0.82
2023-12-23T03:45:18.349Z,1.13
2023-12-23T03:47:45.647Z,0.80
2023-12-23T03:50:13.081Z,1.40
2023-12-23T03:52:40.671Z,0.60
2023-12-23T03:55:08.268Z,0.85
2023-12-23T03:57:35.671Z,0.65
2023-12-23T04:00:02.998Z,0.50
2023-12-23T04:02:30.317Z,0.50
2023-12-23T04:04:57.717Z,1.00
2023-12-23T04:07:24.996Z,0.60
2023-12-23T04:09:52.385Z,0.75
2023-12-23T04:12:19.598Z,0.82
2023-12-23T04:14:46.887Z,0.88
2023-12-23T04:17:15.325Z,0.63
2023-12-23T04:19:42.805Z,0.90
2023-12-23T04:22:10.094Z,0.80
2023-12-23T04:24:37.833Z,1.63
2023-12-23T04:27:05.618Z,1.25
2023-12-23T04:29:33.468Z,0.70
2023-12-23T04:32:00.818Z,0.73
2023-12-23T04:34:28.281Z,0.50
2023-12-23T04:36:55.723Z,0.50
2023-12-23T04:39:23.383Z,0.68
2023-12-23T04:41:52.147Z,0.50
2023-12-23T04:44:20.384Z,1.13
2023-12-23T04:46:48.337Z,0.68
2023-12-23T04:49:15.944Z,0.40
2023-12-23T04:51:46.503Z,0.60
2023-12-23T04:54:14.165Z,0.70
2023-12-23T04:56:41.768Z,0.52
2023-12-23T04:59:10.065Z,0.68
2023-12-23T05:01:37.485Z,0.55
2023-12-23T05:04:04.877Z,0.77
2023-12-23T05:06:32.159Z,1.20
2023-12-23T05:08:59.474Z,0.82
2023-12-23T05:11:26.813Z,0.80
2023-12-23T05:13:54.253Z,0.60
2023-12-23T05:16:21.840Z,0.60
2023-12-23T05:18:49.333Z,0.70
2023-12-23T05:21:17.399Z,0.60
2023-12-23T05:23:44.734Z,0.68
2023-12-23T05:26:12.762Z,0.82
2023-12-23T05:28:40.317Z,0.70
2023-12-23T05:31:07.633Z,1.13
2023-12-23T05:33:35.098Z,0.60
2023-12-23T05:36:02.467Z,0.60
2023-12-23T05:38:29.828Z,0.63
2023-12-23T05:40:57.550Z,0.70
2023-12-23T05:43:24.978Z,0.88
2023-12-23T05:45:52.281Z,0.75
2023-12-23T05:48:19.803Z,0.80
2023-12-23T05:50:47.336Z,0.57
2023-12-23T05:53:14.629Z,1.00
2023-12-23T05:55:42.552Z,0.90
2023-12-23T05:58:10.295Z,0.80
2023-12-23T06:00:37.839Z,1.23
2023-12-23T06:03:05.289Z,0.90
2023-12-23T06:05:32.800Z,0.93
2023-12-23T06:08:00.332Z,0.80
2023-12-23T06:10:27.652Z,1.00
2023-12-23T06:12:54.933Z,0.77
2023-12-23T06:15:22.150Z,1.00
2023-12-23T06:17:52.357Z,1.05
2023-12-23T06:20:20.162Z,1.80
2023-12-23T06:22:47.520Z,1.10
2023-12-23T06:25:14.850Z,1.63
2023-12-23T06:27:42.387Z,1.20
2023-12-23T06:30:12.213Z,1.30
2023-12-23T06:32:40.238Z,1.27
2023-12-23T06:35:07.959Z,0.95
2023-12-23T06:37:35.324Z,1.05
2023-12-23T06:40:02.574Z,1.17
2023-12-23T06:42:29.896Z,1.10
2023-12-23T06:44:57.232Z,1.10
2023-12-23T06:47:24.558Z,0.85
2023-12-23T06:49:52.061Z,1.05
2023-12-23T06:52:19.404Z,1.17
2023-12-23T06:54:46.721Z,1.05
2023-12-23T06:57:14.375Z,1.00
2023-12-23T06:59:41.733Z,1.40
2023-12-23T07:02:09.212Z,1.00
2023-12-23T07:04:36.455Z,2.03
2023-12-23T07:07:03.772Z,1.05
2023-12-23T07:09:31.070Z,1.05
2023-12-23T07:11:58.392Z,0.90
2023-12-23T07:14:26.268Z,0.85
2023-12-23T07:16:53.976Z,1.90
2023-12-23T07:19:21.315Z,1.45
2023-12-23T07:21:54.287Z,1.00
2023-12-23T07:24:22.087Z,1.40
2023-12-23T07:26:49.443Z,1.10
2023-12-23T07:29:18.089Z,1.00
2023-12-23T07:31:45.721Z,0.95
2023-12-23T07:34:13.071Z,1.08
2023-12-23T07:36:40.399Z,1.02
2023-12-23T07:39:08.002Z,0.90
2023-12-23T07:41:35.380Z,0.88
2023-12-23T07:44:02.893Z,1.10
2023-12-23T07:46:30.695Z,0.77
2023-12-23T07:48:58.144Z,1.10
2023-12-23T07:51:25.501Z,0.85
2023-12-23T07:53:53.098Z,1.15
2023-12-23T07:56:20.562Z,1.33
2023-12-23T07:58:47.937Z,1.33
2023-12-23T08:01:15.263Z,1.02
2023-12-23T08:03:43.117Z,1.20
2023-12-23T08:06:10.448Z,0.65
2023-12-23T08:08:37.771Z,1.20
2023-12-23T08:11:05.158Z,0.60
2023-12-23T08:13:32.625Z,1.15
2023-12-23T08:16:00.040Z,0.80
2023-12-23T08:18:27.676Z,0.57
2023-12-23T08:20:55.050Z,0.63
2023-12-23T08:23:22.511Z,0.93
2023-12-23T08:25:49.816Z,0.65
2023-12-23T08:28:17.197Z,0.60
2023-12-23T08:30:44.509Z,0.77
2023-12-23T08:33:12.126Z,0.85
2023-12-23T08:35:41.956Z,0.80
2023-12-23T08:38:12.449Z,0.50
2023-12-23T08:40:39.821Z,0.60
2023-12-23T08:43:07.159Z,0.77
2023-12-23T08:45:34.513Z,0.65
2023-12-23T08:48:02.314Z,0.50
2023-12-23T08:50:29.906Z,0.43
2023-12-23T08:52:57.355Z,0.40
2023-12-23T08:55:25.326Z,0.80
2023-12-23T08:57:52.966Z,0.50
2023-12-23T09:00:20.825Z,0.57
2023-12-23T09:02:48.593Z,0.40
2023-12-23T09:05:16.344Z,0.40
2023-12-23T09:07:43.824Z,0.52
2023-12-23T09:10:11.204Z,0.52
2023-12-23T09:12:40.223Z,0.40
2023-12-23T09:15:07.631Z,0.30
2023-12-23T09:17:35.147Z,0.40
2023-12-23T09:20:02.806Z,0.30
2023-12-23T09:22:30.123Z,0.38
2023-12-23T09:24:57.528Z,0.22
2023-12-23T09:27:24.963Z,0.38
2023-12-23T09:29:54.611Z,0.55
2023-12-23T09:32:22.738Z,0.40
2023-12-23T09:34:50.687Z,0.38
2023-12-23T09:37:18.683Z,0.22
2023-12-23T09:39:46.003Z,0.32
2023-12-23T09:42:13.367Z,0.30
2023-12-23T09:44:41.846Z,0.30
2023-12-23T09:47:09.769Z,0.30
2023-12-23T09:49:38.508Z,0.25
2023-12-23T09:52:05.976Z,0.20
2023-12-23T09:54:37.046Z,0.38
2023-12-23T09:57:04.481Z,0.20
2023-12-23T09:59:32.988Z,0.30
2023-12-23T10:02:00.382Z,0.30
2023-12-23T10:04:29.979Z,0.30
2023-12-23T10:06:57.266Z,0.22
2023-12-23T10:09:24.773Z,0.20
2023-12-23T10:11:52.333Z,0.20
2023-12-23T10:14:22.308Z,0.20
2023-12-23T10:16:50.131Z,0.20
2023-12-23T10:19:17.672Z,0.30
2023-12-23T10:21:45.134Z,0.20
2023-12-23T10:24:12.742Z,0.30
2023-12-23T10:26:40.162Z,0.35
2023-12-23T10:29:08.779Z,0.20
2023-12-23T10:31:37.757Z,0.30
2023-12-23T10:34:09.722Z,0.30
2023-12-23T10:36:38.714Z,0.30
2023-12-23T10:39:08.829Z,0.20
2023-12-23T10:41:47.977Z,0.22
2023-12-23T10:44:16.269Z,0.30
2023-12-23T10:46:44.926Z,0.20
2023-12-23T10:49:12.980Z,0.40
2023-12-23T10:51:40.679Z,0.30
2023-12-23T10:54:12.329Z,0.30
2023-12-23T10:56:40.996Z,0.50
2023-12-23T10:59:09.111Z,0.28
2023-12-23T11:01:37.145Z,0.30
2023-12-23T11:04:05.401Z,0.65
2023-12-23T11:06:35.949Z,0.28
2023-12-23T11:09:03.808Z,0.50
2023-12-23T11:11:31.573Z,0.35
2023-12-23T11:13:59.082Z,0.43
2023-12-23T11:16:27.194Z,0.40
2023-12-23T11:18:54.637Z,0.30
2023-12-23T11:21:23.078Z,0.40
2023-12-23T11:23:50.768Z,0.50
2023-12-23T11:26:39.048Z,0.68
2023-12-23T11:29:06.711Z,0.40
2023-12-23T11:31:34.136Z,0.60
2023-12-23T11:34:01.896Z,0.60
2023-12-23T11:36:29.899Z,0.35
2023-12-23T11:38:57.466Z,0.80
2023-12-23T11:41:25.005Z,0.40
2023-12-23T11:43:52.453Z,0.50
2023-12-23T11:46:20.662Z,0.40
2023-12-23T11:48:48.213Z,0.50
2023-12-23T11:51:15.832Z,0.57
2023-12-23T11:53:43.351Z,0.65
2023-12-23T11:56:11.073Z,0.50
2023-12-23T11:58:40.215Z,0.50
2023-12-23T12:01:07.646Z,0.40
2023-12-23T12:03:35.288Z,0.77
2023-12-23T12:06:03.998Z,0.50
2023-12-23T12:08:31.771Z,0.57
2023-12-23T12:11:03.122Z,0.60
2023-12-23T12:13:31.959Z,0.47
2023-12-23T12:15:59.435Z,0.63
2023-12-23T12:18:26.850Z,0.50
2023-12-23T12:20:54.265Z,1.13
2023-12-23T12:23:21.755Z,0.50
2023-12-23T12:25:51.060Z,0.60
2023-12-23T12:28:18.895Z,0.50
2023-12-23T12:30:46.900Z,0.52
2023-12-23T12:33:16.496Z,1.08
2023-12-23T12:35:44.075Z,0.50
2023-12-23T12:38:17.419Z,0.63
2023-12-23T12:40:51.742Z,0.45
2023-12-23T12:43:19.275Z,0.50
2023-12-23T12:45:49.804Z,0.60
2023-12-23T12:48:17.844Z,0.40
2023-12-23T12:50:45.984Z,0.88
2023-12-23T12:53:17.351Z,0.55
2023-12-23T12:55:45.271Z,0.30
2023-12-23T12:58:13.277Z,0.43
2023-12-23T13:00:40.851Z,0.50
2023-12-23T13:03:08.377Z,0.68
2023-12-23T13:05:36.773Z,0.47
2023-12-23T13:08:04.284Z,0.52
2023-12-23T13:10:32.323Z,0.50
2023-12-23T13:13:01.826Z,0.40
2023-12-23T13:15:29.751Z,0.60
2023-12-23T13:17:57.681Z,0.63
2023-12-23T13:20:28.099Z,0.47
2023-12-23T13:22:56.547Z,0.60
2023-12-23T13:25:24.212Z,0.50
2023-12-23T13:27:51.907Z,0.40
2023-12-23T13:30:19.348Z,0.63
2023-12-23T13:32:46.856Z,0.70
2023-12-23T13:35:14.287Z,0.68
2023-12-23T13:37:41.969Z,0.70
2023-12-23T13:40:12.682Z,0.93
2023-12-23T13:42:39.934Z,0.60
2023-12-23T13:45:07.416Z,0.70
2023-12-23T13:47:34.927Z,0.60
2023-12-23T13:50:04.416Z,0.60
2023-12-23T13:52:32.500Z,0.60
2023-12-23T13:54:59.979Z,0.90
2023-12-23T13:57:27.550Z,0.75
2023-12-23T13:59:54.877Z,0.75
2023-12-23T14:02:22.251Z,1.42
2023-12-23T14:04:49.979Z,1.10
2023-12-23T14:07:17.242Z,0.88
2023-12-23T14:09:44.708Z,0.57
2023-12-23T14:12:12.088Z,1.10
2023-12-23T14:14:39.424Z,0.88
2023-12-23T14:17:07.538Z,0.80
2023-12-23T14:19:35.221Z,1.10
2023-12-23T14:22:02.830Z,1.15
2023-12-23T14:24:30.252Z,0.93
2023-12-23T14:26:57.834Z,0.57
2023-12-23T14:29:25.797Z,0.68
2023-12-23T14:31:53.183Z,1.25
2023-12-23T14:34:20.615Z,1.02
2023-12-23T14:36:50.259Z,0.80
2023-12-23T14:39:22.637Z,0.60
2023-12-23T14:41:51.794Z,0.60
2023-12-23T14:44:19.162Z,0.70
2023-12-23T14:46:47.764Z,0.80
2023-12-23T14:49:15.264Z,0.68
2023-12-23T14:51:42.813Z,0.65
2023-12-23T14:54:10.173Z,0.98
2023-12-23T14:56:37.968Z,0.85
2023-12-23T14:59:05.554Z,0.70
2023-12-23T15:01:36.491Z,1.15
2023-12-23T15:04:06.324Z,0.75
2023-12-23T15:06:34.016Z,0.50
2023-12-23T15:09:01.397Z,0.60
2023-12-23T15:11:29.039Z,0.80
2023-12-23T15:13:56.628Z,0.60
2023-12-23T15:16:24.034Z,0.85
2023-12-23T15:18:52.727Z,0.63
2023-12-23T15:21:22.568Z,0.68
2023-12-23T15:23:49.920Z,1.40
2023-12-23T15:26:17.329Z,0.95
2023-12-23T15:28:44.688Z,1.00
2023-12-23T15:31:12.286Z,1.00
2023-12-23T15:33:39.772Z,0.80
2023-12-23T15:36:08.365Z,0.80
2023-12-23T15:38:36.161Z,0.73
2023-12-23T15:41:04.334Z,0.80
2023-12-23T15:43:32.130Z,1.10
2023-12-23T15:45:59.827Z,0.60
2023-12-23T15:48:28.074Z,0.90
2023-12-23T15:50:55.403Z,1.02
2023-12-23T15:53:23.173Z,0.63
2023-12-23T15:55:50.649Z,1.05
2023-12-23T15:58:18.162Z,1.15
2023-12-23T16:00:45.839Z,1.02
2023-12-23T16:03:13.226Z,1.00
2023-12-23T16:05:40.647Z,0.70
2023-12-23T16:08:09.889Z,0.88
2023-12-23T16:10:38.140Z,0.70
2023-12-23T16:13:07.501Z,0.77
2023-12-23T16:15:35.345Z,0.68
2023-12-23T16:18:03.412Z,0.90
2023-12-23T16:20:30.975Z,0.90
2023-12-23T16:22:58.455Z,0.68
2023-12-23T16:25:26.025Z,0.70
2023-12-23T16:27:53.571Z,0.80
2023-12-23T16:30:21.042Z,0.60
2023-12-23T16:32:50.265Z,0.73
2023-12-23T16:35:17.894Z,0.63
2023-12-23T16:37:45.260Z,0.60
2023-12-23T16:40:13.284Z,0.50
2023-12-23T16:42:41.033Z,0.50
2023-12-23T16:45:09.630Z,0.25
2023-12-23T16:47:37.243Z,0.30
2023-12-23T16:50:05.552Z,0.30
2023-12-23T16:52:33.122Z,0.40
2023-12-23T16:55:00.489Z,0.40
2023-12-23T16:57:28.173Z,0.45
2023-12-23T16:59:55.459Z,0.45
2023-12-23T17:02:23.524Z,0.35
2023-12-23T17:04:51.050Z,0.32
2023-12-23T17:07:19.025Z,0.50
2023-12-23T17:09:46.690Z,0.30
2023-12-23T17:12:14.424Z,0.40
2023-12-23T17:14:41.770Z,0.40
2023-12-23T17:17:09.455Z,0.50
2023-12-23T17:19:36.876Z,0.40
2023-12-23T17:22:04.592Z,0.50
2023-12-23T17:24:32.050Z,0.50
2023-12-23T17:27:01.543Z,0.43
2023-12-23T17:29:29.754Z,0.35
2023-12-23T17:31:57.415Z,0.30
2023-12-23T17:34:24.854Z,0.32
2023-12-23T17:36:52.321Z,0.45
2023-12-23T17:39:22.369Z,0.30
2023-12-23T17:41:50.280Z,0.40
2023-12-23T17:44:17.741Z,0.45
2023-12-23T17:46:45.691Z,0.50
2023-12-23T17:49:14.000Z,0.50
2023-12-23T17:51:41.417Z,0.40
2023-12-23T17:54:09.953Z,0.30
2023-12-23T17:56:38.302Z,0.30
2023-12-23T17:59:05.761Z,0.30
2023-12-23T18:01:33.400Z,0.68
2023-12-23T18:04:00.913Z,0.40
2023-12-23T18:06:28.406Z,0.30
2023-12-23T18:08:56.300Z,0.50
2023-12-23T18:11:23.854Z,0.25
2023-12-23T18:13:51.962Z,0.40
2023-12-23T18:16:20.136Z,0.40
2023-12-23T18:18:48.014Z,0.50
2023-12-23T18:21:15.838Z,0.50
2023-12-23T18:23:43.817Z,0.50
2023-12-23T18:26:11.804Z,0.60
2023-12-23T18:28:39.373Z,0.75
2023-12-23T18:31:07.052Z,0.77
2023-12-23T18:33:34.633Z,0.55
2023-12-23T18:36:02.764Z,0.60
2023-12-23T18:38:30.169Z,0.30
2023-12-23T18:40:58.069Z,0.70
2023-12-23T18:43:25.998Z,0.63
2023-12-23T18:45:54.192Z,0.57
2023-12-23T18:48:22.955Z,0.50
2023-12-23T18:50:50.533Z,0.60
2023-12-23T18:53:17.993Z,0.60
2023-12-23T18:55:46.024Z,0.40
2023-12-23T18:58:13.704Z,0.40
2023-12-23T19:00:42.823Z,0.30
2023-12-23T19:03:13.566Z,0.43
2023-12-23T19:05:41.066Z,0.50
2023-12-23T19:08:09.176Z,0.40
2023-12-23T19:10:36.909Z,0.55
2023-12-23T19:13:04.387Z,0.52
2023-12-23T19:15:32.592Z,0.80
2023-12-23T19:18:00.295Z,0.50
2023-12-23T19:20:28.006Z,0.40
2023-12-23T19:22:55.912Z,0.63
2023-12-23T19:25:23.524Z,0.60
2023-12-23T19:27:51.392Z,0.40
2023-12-23T19:30:19.593Z,0.40
2023-12-23T19:32:47.457Z,0.60
2023-12-23T19:35:17.210Z,0.40
2023-12-23T19:37:44.809Z,0.43
2023-12-23T19:40:13.161Z,0.30
2023-12-23T19:42:40.402Z,0.63
2023-12-23T19:45:08.333Z,0.50
2023-12-23T19:47:36.193Z,0.50
2023-12-23T19:50:03.823Z,0.30
2023-12-23T19:52:31.513Z,0.40
2023-12-23T19:54:59.548Z,0.52
2023-12-23T19:57:27.071Z,0.40
2023-12-23T19:59:54.418Z,0.60
2023-12-23T20:02:21.956Z,0.55
2023-12-23T20:04:49.389Z,0.40
2023-12-23T20:07:16.773Z,0.50
2023-12-23T20:09:44.284Z,0.45
2023-12-23T20:12:11.798Z,0.35
2023-12-23T20:14:41.887Z,0.35
2023-12-23T20:17:09.312Z,0.50
2023-12-23T20:19:36.708Z,0.47
2023-12-23T20:22:04.084Z,0.50
2023-12-23T20:24:31.858Z,0.50
2023-12-23T20:27:02.157Z,0.52
2023-12-23T20:29:32.031Z,0.70
2023-12-23T20:31:59.419Z,0.30
2023-12-23T20:34:27.110Z,0.45
2023-12-23T20:36:55.722Z,0.45
2023-12-23T20:39:27.048Z,0.40
2023-12-23T20:41:56.223Z,1.50
2023-12-23T20:44:23.752Z,0.40
2023-12-23T20:46:52.545Z,0.60
2023-12-23T20:49:20.392Z,0.40
2023-12-23T20:51:47.810Z,0.77
2023-12-23T20:54:15.256Z,0.50
2023-12-23T20:56:43.169Z,0.52
2023-12-23T20:59:11.671Z,0.63
2023-12-23T21:01:38.991Z,0.47
2023-12-23T21:04:08.795Z,0.32
2023-12-23T21:06:36.223Z,0.45
2023-12-23T21:09:08.782Z,0.70
2023-12-23T21:11:36.230Z,0.43
2023-12-23T21:14:04.307Z,0.70
2023-12-23T21:16:31.790Z,0.60
2023-12-23T21:18:59.776Z,0.50
2023-12-23T21:21:27.190Z,0.57
2023-12-23T21:23:54.838Z,0.60
2023-12-23T21:26:23.452Z,0.50
2023-12-23T21:28:51.176Z,0.90
2023-12-23T21:31:18.765Z,0.70
2023-12-23T21:33:46.602Z,0.50
2023-12-23T21:36:14.023Z,1.10
2023-12-23T21:38:41.582Z,1.23
2023-12-23T21:41:09.614Z,0.80
2023-12-23T21:43:37.272Z,0.73
2023-12-23T21:46:05.079Z,0.98
2023-12-23T21:48:32.552Z,1.23
2023-12-23T21:51:00.091Z,0.80
2023-12-23T21:53:28.157Z,1.10
2023-12-23T21:55:56.386Z,0.95
2023-12-23T21:58:23.794Z,0.90
2023-12-23T22:00:51.275Z,1.02
2023-12-23T22:03:18.775Z,1.08
2023-12-23T22:05:46.695Z,0.95
2023-12-23T22:08:14.098Z,1.67
2023-12-23T22:10:41.792Z,0.70
2023-12-23T22:13:09.192Z,0.55
2023-12-23T22:15:37.386Z,0.80
2023-12-23T22:18:05.439Z,1.30
2023-12-23T22:20:32.821Z,0.75
2023-12-23T22:23:00.378Z,0.82
2023-12-23T22:25:27.797Z,0.75
2023-12-23T22:27:55.299Z,0.80
2023-12-23T22:30:22.699Z,1.00
2023-12-23T22:32:50.388Z,0.70
2023-12-23T22:35:18.043Z,1.00
2023-12-23T22:37:45.517Z,2.30
2023-12-23T22:40:13.514Z,0.68
2023-12-23T22:42:40.815Z,1.10
2023-12-23T22:45:08.373Z,0.90
2023-12-23T22:47:35.728Z,0.80
2023-12-23T22:50:03.710Z,0.88
2023-12-23T22:52:31.055Z,0.63
2023-12-23T22:54:58.361Z,0.85
2023-12-23T22:57:25.676Z,0.70
2023-12-23T22:59:54.207Z,0.73
2023-12-23T23:02:21.863Z,0.70
2023-12-23T23:04:49.273Z,0.82
2023-12-23T23:07:16.580Z,1.17
2023-12-23T23:09:44.735Z,0.88
2023-12-23T23:12:11.985Z,0.90
2023-12-23T23:14:40.993Z,1.00
2023-12-23T23:17:09.126Z,0.75
2023-12-23T23:19:36.728Z,1.00
2023-12-23T23:22:04.552Z,1.00
2023-12-23T23:24:31.835Z,1.10
2023-12-23T23:26:59.044Z,1.10
2023-12-23T23:29:26.488Z,1.00
2023-12-23T23:31:54.197Z,1.20
2023-12-23T23:34:21.512Z,1.00
2023-12-23T23:36:48.966Z,0.93
2023-12-23T23:39:16.308Z,0.85
2023-12-23T23:41:46.441Z,0.90
2023-12-23T23:44:13.827Z,0.90
2023-12-23T23:46:41.042Z,1.13
2023-12-23T23:49:09.419Z,0.80
2023-12-23T23:51:38.000Z,0.80
2023-12-23T23:54:05.404Z,0.95
2023-12-23T23:56:32.735Z,0.93
2023-12-23T23:59:00.183Z,1.38
